Time;durP1;ratioP1;P1;durP2;ratioP2;P2;SDS_P1;SDS_P2;PMS_P1;PMS_P2;Temp;Humidity;BMP_temperature;BMP_pressure;BME280_temperature;BME280_humidity;BME280_pressure;Samples;Min_cycle;Max_cycle;Signal;HPM_P1;HPM_P2
2021/12/03 00:00:23;;;;;;;36.75;14.18;;;;;;;;;;5031064;28;20101;-56
2021/12/03 00:02:48;;;;;;;17.02;9.23;;;;;;;;;;5031754;28;20010;-55
2021/12/03 00:05:13;;;;;;;11.15;7.05;;;;;;;;;;5030965;28;20044;-56
2021/12/03 00:07:41;;;;;;;14.77;8.60;;;;;;;;;;5029536;28;20376;-57
2021/12/03 00:10:08;;;;;;;17.27;9.95;;;;;;;;;;5030104;28;20612;-56
2021/12/03 00:12:33;;;;;;;14.35;5.65;;;;;;;;;;5029587;28;20036;-56
2021/12/03 00:14:58;;;;;;;11.63;4.22;;;;;;;;;;5030107;28;20025;-57
2021/12/03 00:17:24;;;;;;;8.38;4.85;;;;;;;;;;5029990;28;20611;-56
2021/12/03 00:19:49;;;;;;;10.15;6.30;;;;;;;;;;5030543;28;20034;-56
2021/12/03 00:22:14;;;;;;;19.30;6.38;;;;;;;;;;5033296;28;20049;-55
2021/12/03 00:24:40;;;;;;;19.48;3.78;;;;;;;;;;5029264;28;20048;-56
2021/12/03 00:27:06;;;;;;;8.15;5.43;;;;;;;;;;5029103;28;20083;-53
2021/12/03 00:29:31;;;;;;;9.70;5.60;;;;;;;;;;5031599;28;20033;-56
2021/12/03 00:31:57;;;;;;;9.98;4.80;;;;;;;;;;5031042;28;20029;-57
2021/12/03 00:34:23;;;;;;;18.70;7.90;;;;;;;;;;5027475;28;20017;-56
2021/12/03 00:36:48;;;;;;;20.67;9.35;;;;;;;;;;5030464;28;20722;-56
2021/12/03 00:39:14;;;;;;;13.18;8.15;;;;;;;;;;5029899;28;20025;-56
2021/12/03 00:41:46;;;;;;;16.58;9.65;;;;;;;;;;5029609;28;20029;-57
2021/12/03 00:44:11;;;;;;;12.18;7.68;;;;;;;;;;5028465;28;20036;-55
2021/12/03 00:46:37;;;;;;;11.68;6.40;;;;;;;;;;5030574;28;20025;-55
2021/12/03 00:49:02;;;;;;;10.15;4.78;;;;;;;;;;5031075;28;20041;-55
2021/12/03 00:51:27;;;;;;;17.83;5.50;;;;;;;;;;5029593;28;20029;-55
2021/12/03 00:53:53;;;;;;;11.15;4.85;;;;;;;;;;5029547;28;20037;-56
2021/12/03 00:56:18;;;;;;;9.95;5.25;;;;;;;;;;5030122;28;20025;-56
2021/12/03 00:58:44;;;;;;;16.92;7.90;;;;;;;;;;5029620;28;20959;-56
2021/12/03 01:01:09;;;;;;;65.05;20.48;;;;;;;;;;5030880;28;20530;-56
2021/12/03 01:03:35;;;;;;;52.28;22.15;;;;;;;;;;5029512;28;20052;-56
2021/12/03 01:06:01;;;;;;;38.63;17.95;;;;;;;;;;5029567;28;20101;-56
2021/12/03 01:08:27;;;;;;;28.15;11.13;;;;;;;;;;5029914;28;20017;-55
2021/12/03 01:10:52;;;;;;;23.58;5.95;;;;;;;;;;5028073;28;20025;-56
2021/12/03 01:13:18;;;;;;;8.30;4.57;;;;;;;;;;5029218;28;20405;-56
2021/12/03 01:15:44;;;;;;;17.65;6.25;;;;;;;;;;5028440;28;20519;-53
2021/12/03 01:18:10;;;;;;;13.98;5.97;;;;;;;;;;5032591;28;20025;-55
2021/12/03 01:20:36;;;;;;;41.50;21.55;;;;;;;;;;5029478;28;20496;-56
2021/12/03 01:23:02;;;;;;;37.55;15.45;;;;;;;;;;5029284;28;20037;-53
2021/12/03 01:25:28;;;;;;;33.63;13.90;;;;;;;;;;5029346;28;20104;-56
2021/12/03 01:27:53;;;;;;;32.45;15.50;;;;;;;;;;5029049;28;20772;-56
2021/12/03 01:30:21;;;;;;;35.70;19.38;;;;;;;;;;5028432;28;20662;-57
2021/12/03 01:32:46;;;;;;;26.08;13.82;;;;;;;;;;5027673;28;20020;-56
2021/12/03 01:35:12;;;;;;;22.92;11.63;;;;;;;;;;5030173;28;20025;-57
2021/12/03 01:37:38;;;;;;;18.42;8.48;;;;;;;;;;5030120;28;20024;-57
2021/12/03 01:40:06;;;;;;;13.30;7.30;;;;;;;;;;5029892;28;20032;-57
2021/12/03 01:42:31;;;;;;;11.95;5.40;;;;;;;;;;5029555;28;20087;-57
2021/12/03 01:44:56;;;;;;;7.25;4.80;;;;;;;;;;5028459;28;20552;-57
2021/12/03 01:47:22;;;;;;;25.10;12.10;;;;;;;;;;5028735;28;20029;-56
2021/12/03 01:49:47;;;;;;;8.43;2.85;;;;;;;;;;5028546;28;20029;-57
2021/12/03 01:52:12;;;;;;;3.58;0.93;;;;;;;;;;5029147;28;20026;-57
2021/12/03 01:54:38;;;;;;;1.10;0.52;;;;;;;;;;5029010;28;20053;-54
2021/12/03 01:57:03;;;;;;;2.28;0.95;;;;;;;;;;5031219;28;20032;-55
2021/12/03 01:59:28;;;;;;;2.65;1.25;;;;;;;;;;5028192;28;20565;-55
2021/12/03 02:01:54;;;;;;;4.53;1.48;;;;;;;;;;5025706;28;20021;-56
2021/12/03 02:04:19;;;;;;;2.15;0.90;;;;;;;;;;5025773;28;20025;-52
2021/12/03 02:06:44;;;;;;;2.55;0.70;;;;;;;;;;5026552;28;20025;-54
2021/12/03 02:09:10;;;;;;;2.38;1.10;;;;;;;;;;5026203;28;20462;-53
2021/12/03 02:11:35;;;;;;;4.57;3.22;;;;;;;;;;5025832;28;20021;-55
2021/12/03 02:14:01;;;;;;;12.88;4.65;;;;;;;;;;5027239;28;20021;-55
2021/12/03 02:16:26;;;;;;;10.73;2.83;;;;;;;;;;5026578;28;20048;-55
2021/12/03 02:18:51;;;;;;;9.55;4.82;;;;;;;;;;5027026;28;20025;-55
2021/12/03 02:21:17;;;;;;;3.85;3.13;;;;;;;;;;5027167;28;20021;-55
2021/12/03 02:23:43;;;;;;;14.68;3.83;;;;;;;;;;5029898;28;20172;-53
2021/12/03 02:26:09;;;;;;;6.80;2.97;;;;;;;;;;5028562;28;20022;-55
2021/12/03 02:28:37;;;;;;;7.18;3.33;;;;;;;;;;5027036;28;20021;-54
2021/12/03 02:31:04;;;;;;;3.20;2.00;;;;;;;;;;5026066;28;20116;-55
2021/12/03 02:33:29;;;;;;;7.55;2.63;;;;;;;;;;5028329;28;20040;-55
2021/12/03 02:35:55;;;;;;;11.05;2.53;;;;;;;;;;5026411;28;20120;-55
2021/12/03 02:38:21;;;;;;;2.40;1.90;;;;;;;;;;5027535;28;20094;-56
2021/12/03 02:40:47;;;;;;;10.70;3.13;;;;;;;;;;5030361;28;20477;-55
2021/12/03 02:43:14;;;;;;;6.72;2.70;;;;;;;;;;5031576;28;20026;-55
2021/12/03 02:45:39;;;;;;;13.18;3.38;;;;;;;;;;5028758;28;20036;-56
2021/12/03 02:48:05;;;;;;;7.95;1.40;;;;;;;;;;5027693;28;20519;-56
2021/12/03 02:50:31;;;;;;;12.40;3.00;;;;;;;;;;5026546;28;20159;-54
2021/12/03 02:52:57;;;;;;;20.55;6.70;;;;;;;;;;5026091;28;20108;-56
2021/12/03 02:55:22;;;;;;;30.85;8.80;;;;;;;;;;5026699;28;20449;-55
2021/12/03 02:57:48;;;;;;;15.68;5.10;;;;;;;;;;5027914;28;20079;-56
2021/12/03 03:00:15;;;;;;;7.90;4.32;;;;;;;;;;5029424;28;20017;-56
2021/12/03 03:02:41;;;;;;;9.88;3.65;;;;;;;;;;5032304;28;20032;-56
2021/12/03 03:05:08;;;;;;;10.13;2.70;;;;;;;;;;5032345;28;20111;-56
2021/12/03 03:07:33;;;;;;;7.25;2.65;;;;;;;;;;5030395;28;20092;-57
2021/12/03 03:09:59;;;;;;;6.63;2.78;;;;;;;;;;5031528;28;20424;-55
2021/12/03 03:12:24;;;;;;;4.68;1.48;;;;;;;;;;5029931;28;20096;-56
2021/12/03 03:14:57;;;;;;;2.80;1.05;;;;;;;;;;5030900;28;20615;-56
2021/12/03 03:17:24;;;;;;;4.30;0.63;;;;;;;;;;5029378;28;20527;-55
2021/12/03 03:19:49;;;;;;;9.32;1.65;;;;;;;;;;5036581;28;20017;-56
2021/12/03 03:22:15;;;;;;;2.72;1.65;;;;;;;;;;5034349;28;20585;-55
2021/12/03 03:24:40;;;;;;;6.43;0.75;;;;;;;;;;5031804;28;20009;-56
2021/12/03 03:27:06;;;;;;;2.47;1.38;;;;;;;;;;5031063;28;20156;-55
2021/12/03 03:29:32;;;;;;;15.25;6.07;;;;;;;;;;5030180;28;20169;-55
2021/12/03 03:31:58;;;;;;;7.45;3.17;;;;;;;;;;5029433;28;20726;-56
2021/12/03 03:34:23;;;;;;;9.68;4.93;;;;;;;;;;5029997;28;20024;-56
2021/12/03 03:36:48;;;;;;;14.63;6.07;;;;;;;;;;5031719;28;20037;-56
2021/12/03 03:39:14;;;;;;;14.48;7.65;;;;;;;;;;5030960;28;20063;-56
2021/12/03 03:41:40;;;;;;;13.60;4.15;;;;;;;;;;5030656;28;20487;-56
2021/12/03 03:44:06;;;;;;;6.38;3.33;;;;;;;;;;5031177;28;20052;-56
2021/12/03 03:46:31;;;;;;;22.83;3.17;;;;;;;;;;5029549;28;20477;-55
2021/12/03 03:48:57;;;;;;;4.53;2.38;;;;;;;;;;5030931;28;20029;-56
2021/12/03 03:51:22;;;;;;;5.45;3.03;;;;;;;;;;5030775;28;20081;-56
2021/12/03 03:53:47;;;;;;;10.32;3.95;;;;;;;;;;5030404;28;20455;-55
2021/12/03 03:56:13;;;;;;;12.20;3.75;;;;;;;;;;5032025;28;20021;-57
2021/12/03 03:58:38;;;;;;;5.00;3.28;;;;;;;;;;5031659;28;20123;-53
2021/12/03 04:01:04;;;;;;;5.20;2.47;;;;;;;;;;5029846;28;20024;-56
2021/12/03 04:03:30;;;;;;;6.85;2.50;;;;;;;;;;5029339;28;20021;-56
2021/12/03 04:05:55;;;;;;;6.65;3.00;;;;;;;;;;5029609;28;20057;-56
2021/12/03 04:08:21;;;;;;;4.25;2.53;;;;;;;;;;5029114;28;20021;-54
2021/12/03 04:10:47;;;;;;;6.25;3.35;;;;;;;;;;5028744;28;20028;-56
2021/12/03 04:13:12;;;;;;;6.28;2.25;;;;;;;;;;5029729;28;20025;-56
2021/12/03 04:15:37;;;;;;;4.28;2.20;;;;;;;;;;5028093;28;20077;-56
2021/12/03 04:18:03;;;;;;;8.57;3.65;;;;;;;;;;5028907;28;20045;-56
2021/12/03 04:20:28;;;;;;;6.88;3.15;;;;;;;;;;5029619;28;20108;-57
2021/12/03 04:22:54;;;;;;;16.95;4.25;;;;;;;;;;5029848;28;20101;-56
2021/12/03 04:25:20;;;;;;;6.72;3.47;;;;;;;;;;5030407;28;20083;-56
2021/12/03 04:27:46;;;;;;;4.97;2.45;;;;;;;;;;5031533;28;20078;-56
2021/12/03 04:30:14;;;;;;;3.47;2.15;;;;;;;;;;5032247;28;20111;-54
2021/12/03 04:32:40;;;;;;;2.47;1.52;;;;;;;;;;5030782;28;20100;-56
2021/12/03 04:35:05;;;;;;;1.75;1.40;;;;;;;;;;5029402;28;20175;-54
2021/12/03 04:37:31;;;;;;;2.70;1.67;;;;;;;;;;5031853;28;20026;-56
2021/12/03 04:39:56;;;;;;;2.03;1.08;;;;;;;;;;5030473;28;20029;-54
2021/12/03 04:42:21;;;;;;;2.63;1.40;;;;;;;;;;5029562;28;20083;-57
2021/12/03 04:44:47;;;;;;;14.05;1.55;;;;;;;;;;5030000;28;20480;-56
2021/12/03 04:47:12;;;;;;;23.17;6.22;;;;;;;;;;5029612;28;20064;-56
2021/12/03 04:49:38;;;;;;;10.70;4.40;;;;;;;;;;5028939;28;20116;-56
2021/12/03 04:52:03;;;;;;;5.50;2.05;;;;;;;;;;5029246;28;20029;-56
2021/12/03 04:54:28;;;;;;;3.05;1.30;;;;;;;;;;5027669;28;20049;-57
2021/12/03 04:56:55;;;;;;;5.05;1.65;;;;;;;;;;5031755;28;20021;-56
2021/12/03 04:59:20;;;;;;;5.65;2.25;;;;;;;;;;5029806;28;20018;-56
2021/12/03 05:01:46;;;;;;;7.38;2.85;;;;;;;;;;5028156;28;20013;-56
2021/12/03 05:04:11;;;;;;;5.60;1.50;;;;;;;;;;5029626;28;20130;-56
2021/12/03 05:09:27;;;;;;;10.50;1.58;;;;;;;;;;5030250;28;20029;-56
2021/12/03 05:11:53;;;;;;;13.80;2.25;;;;;;;;;;5029879;28;20018;-55
2021/12/03 05:14:18;;;;;;;5.50;1.73;;;;;;;;;;5028835;28;20040;-56
2021/12/03 05:16:45;;;;;;;8.55;3.10;;;;;;;;;;5028345;28;20603;-56
2021/12/03 05:19:10;;;;;;;4.38;1.85;;;;;;;;;;5029586;28;20018;-55
2021/12/03 05:21:36;;;;;;;7.28;3.28;;;;;;;;;;5028991;28;20032;-56
2021/12/03 05:24:01;;;;;;;5.50;2.47;;;;;;;;;;5028622;28;20018;-55
2021/12/03 05:26:27;;;;;;;5.63;1.60;;;;;;;;;;5027798;28;20156;-55
2021/12/03 05:28:52;;;;;;;5.60;2.55;;;;;;;;;;5027776;28;20104;-55
2021/12/03 05:31:17;;;;;;;9.25;2.25;;;;;;;;;;5028285;28;20033;-57
2021/12/03 05:33:43;;;;;;;8.70;2.53;;;;;;;;;;5027180;28;20020;-57
2021/12/03 05:36:08;;;;;;;4.00;1.90;;;;;;;;;;5028005;28;20013;-56
2021/12/03 05:38:33;;;;;;;4.28;2.15;;;;;;;;;;5030497;28;20586;-56
2021/12/03 05:40:59;;;;;;;5.25;2.75;;;;;;;;;;5028293;28;20049;-57
2021/12/03 05:43:24;;;;;;;9.32;4.72;;;;;;;;;;5030745;28;20033;-57
2021/12/03 05:45:49;;;;;;;11.15;3.33;;;;;;;;;;5032057;28;20024;-57
2021/12/03 05:48:15;;;;;;;5.20;3.53;;;;;;;;;;5027938;28;20026;-57
2021/12/03 05:50:41;;;;;;;12.18;7.50;;;;;;;;;;5028195;28;20412;-58
2021/12/03 05:53:06;;;;;;;9.85;4.65;;;;;;;;;;5026643;28;20029;-58
2021/12/03 05:55:31;;;;;;;13.57;8.90;;;;;;;;;;5027433;28;20481;-58
2021/12/03 05:57:57;;;;;;;16.50;7.90;;;;;;;;;;5027104;28;20086;-57
2021/12/03 06:00:24;;;;;;;15.05;13.38;;;;;;;;;;5027092;28;20032;-58
2021/12/03 06:02:51;;;;;;;16.23;10.90;;;;;;;;;;5026751;28;20041;-58
2021/12/03 06:05:16;;;;;;;8.45;5.35;;;;;;;;;;5030432;28;20021;-58
2021/12/03 06:07:42;;;;;;;10.32;7.80;;;;;;;;;;5027786;28;20013;-55
2021/12/03 06:10:07;;;;;;;3.10;2.50;;;;;;;;;;5028121;28;20026;-55
2021/12/03 06:12:33;;;;;;;4.30;3.75;;;;;;;;;;5027024;28;20017;-55
2021/12/03 06:14:58;;;;;;;7.10;2.33;;;;;;;;;;5025129;28;20485;-55
2021/12/03 06:17:23;;;;;;;15.18;6.93;;;;;;;;;;5026508;28;20151;-55
2021/12/03 06:19:49;;;;;;;15.25;3.75;;;;;;;;;;5027601;28;20444;-54
2021/12/03 06:22:14;;;;;;;5.30;3.78;;;;;;;;;;5027328;28;20048;-54
2021/12/03 06:24:39;;;;;;;10.73;3.95;;;;;;;;;;5029805;28;20668;-54
2021/12/03 06:27:05;;;;;;;8.05;3.08;;;;;;;;;;5029067;28;20087;-54
2021/12/03 06:29:31;;;;;;;3.20;2.25;;;;;;;;;;5026487;28;20516;-54
2021/12/03 06:31:56;;;;;;;4.35;2.60;;;;;;;;;;5025045;28;20037;-56
2021/12/03 06:34:21;;;;;;;13.70;5.25;;;;;;;;;;5030194;28;20017;-57
2021/12/03 06:36:47;;;;;;;7.28;3.75;;;;;;;;;;5035927;28;20501;-57
2021/12/03 06:39:12;;;;;;;14.73;3.95;;;;;;;;;;5032500;28;20374;-56
2021/12/03 06:41:37;;;;;;;4.15;2.72;;;;;;;;;;5030893;28;20757;-58
2021/12/03 06:44:05;;;;;;;5.85;2.22;;;;;;;;;;5033150;28;20049;-57
2021/12/03 06:46:31;;;;;;;3.05;1.52;;;;;;;;;;5030782;28;20096;-57
2021/12/03 06:48:56;;;;;;;9.00;2.63;;;;;;;;;;5032456;28;20446;-57
2021/12/03 06:51:22;;;;;;;10.70;3.08;;;;;;;;;;5031335;28;20028;-57
2021/12/03 06:53:57;;;;;;;13.48;2.95;;;;;;;;;;5033415;28;20037;-57
2021/12/03 06:56:23;;;;;;;5.70;3.20;;;;;;;;;;5032959;28;20032;-57
2021/12/03 06:58:48;;;;;;;16.85;11.57;;;;;;;;;;5032349;28;20123;-58
2021/12/03 07:01:14;;;;;;;11.75;4.28;;;;;;;;;;5031144;28;20828;-57
2021/12/03 07:03:39;;;;;;;11.23;5.00;;;;;;;;;;5029739;28;20025;-56
2021/12/03 07:06:05;;;;;;;13.80;7.13;;;;;;;;;;5030019;28;20022;-57
2021/12/03 07:08:30;;;;;;;12.95;8.32;;;;;;;;;;5030942;28;20035;-57
2021/12/03 07:10:55;;;;;;;9.25;4.50;;;;;;;;;;5029997;28;20345;-56
2021/12/03 07:13:21;;;;;;;10.48;3.38;;;;;;;;;;5030687;28;20025;-56
2021/12/03 07:15:46;;;;;;;2.97;2.00;;;;;;;;;;5030739;28;20496;-57
2021/12/03 07:18:11;;;;;;;9.52;1.92;;;;;;;;;;5029631;28;20167;-56
2021/12/03 07:20:37;;;;;;;18.33;3.55;;;;;;;;;;5031657;28;20361;-55
2021/12/03 07:23:02;;;;;;;6.07;2.97;;;;;;;;;;5029608;28;20021;-57
2021/12/03 07:25:28;;;;;;;8.50;5.45;;;;;;;;;;5029233;28;20013;-57
2021/12/03 07:27:53;;;;;;;4.55;3.33;;;;;;;;;;5028593;28;20057;-55
2021/12/03 07:30:19;;;;;;;8.43;4.03;;;;;;;;;;5029656;28;20017;-57
2021/12/03 07:32:45;;;;;;;8.68;3.90;;;;;;;;;;5030505;28;20034;-57
2021/12/03 07:35:10;;;;;;;23.48;18.27;;;;;;;;;;5027426;28;20025;-57
2021/12/03 07:37:36;;;;;;;23.10;15.93;;;;;;;;;;5027788;28;20044;-57
2021/12/03 07:40:05;;;;;;;31.55;14.25;;;;;;;;;;5027858;28;20017;-57
2021/12/03 07:42:32;;;;;;;25.20;15.02;;;;;;;;;;5029552;28;20331;-53
2021/12/03 07:44:57;;;;;;;26.83;12.63;;;;;;;;;;5032598;28;20029;-56
2021/12/03 07:47:23;;;;;;;15.45;10.57;;;;;;;;;;5030290;28;20534;-57
2021/12/03 07:49:50;;;;;;;9.95;6.45;;;;;;;;;;5028714;28;20340;-56
2021/12/03 07:52:17;;;;;;;19.88;9.25;;;;;;;;;;5030473;28;20056;-57
2021/12/03 07:54:43;;;;;;;13.52;8.10;;;;;;;;;;5028713;28;20052;-57
2021/12/03 07:57:08;;;;;;;21.75;14.52;;;;;;;;;;5028662;28;20068;-57
2021/12/03 07:59:33;;;;;;;70.65;40.03;;;;;;;;;;5028708;28;20017;-57
2021/12/03 08:01:59;;;;;;;53.60;31.08;;;;;;;;;;5029529;28;20022;-57
2021/12/03 08:04:24;;;;;;;22.45;15.77;;;;;;;;;;5027885;28;20089;-56
2021/12/03 08:06:54;;;;;;;20.52;14.57;;;;;;;;;;5027653;28;20580;-56
2021/12/03 08:09:20;;;;;;;24.52;15.00;;;;;;;;;;5028581;28;20245;-56
2021/12/03 08:11:45;;;;;;;14.77;12.27;;;;;;;;;;5025395;28;20049;-56
2021/12/03 08:14:11;;;;;;;14.60;10.50;;;;;;;;;;5027544;28;20186;-57
2021/12/03 08:16:37;;;;;;;15.60;11.00;;;;;;;;;;5027661;28;20037;-56
2021/12/03 08:19:03;;;;;;;16.05;9.63;;;;;;;;;;5027892;28;20029;-56
2021/12/03 08:21:29;;;;;;;20.75;10.50;;;;;;;;;;5030964;28;20147;-56
2021/12/03 08:23:54;;;;;;;12.82;7.47;;;;;;;;;;5025888;28;20064;-57
2021/12/03 08:26:20;;;;;;;22.00;9.45;;;;;;;;;;5015471;28;20112;-57
2021/12/03 08:28:45;;;;;;;16.17;11.20;;;;;;;;;;5027468;28;20032;-57
2021/12/03 08:31:14;;;;;;;9.88;8.77;;;;;;;;;;5023768;28;20034;-57
2021/12/03 08:33:39;;;;;;;16.58;11.23;;;;;;;;;;5026207;28;20029;-55
2021/12/03 08:36:05;;;;;;;23.70;13.10;;;;;;;;;;5025107;28;20480;-57
2021/12/03 08:38:30;;;;;;;24.00;12.75;;;;;;;;;;5027566;28;20559;-56
2021/12/03 08:40:55;;;;;;;24.75;12.45;;;;;;;;;;5026402;28;20593;-56
2021/12/03 08:43:21;;;;;;;18.50;11.63;;;;;;;;;;5028054;28;20025;-57
2021/12/03 08:45:52;;;;;;;20.77;13.38;;;;;;;;;;5026510;28;20033;-56
2021/12/03 08:48:18;;;;;;;15.43;11.10;;;;;;;;;;5028234;28;20025;-56
2021/12/03 08:50:50;;;;;;;25.58;14.50;;;;;;;;;;5024737;28;20645;-56
2021/12/03 08:56:00;;;;;;;14.48;9.70;;;;;;;;;;5026019;28;20529;-57
2021/12/03 08:58:26;;;;;;;16.75;9.07;;;;;;;;;;5027292;28;20053;-57
2021/12/03 09:00:51;;;;;;;10.88;6.97;;;;;;;;;;5026135;28;20040;-57
2021/12/03 09:03:17;;;;;;;14.27;8.02;;;;;;;;;;5021441;28;20014;-57
2021/12/03 09:05:44;;;;;;;13.77;7.78;;;;;;;;;;5025091;28;20753;-56
2021/12/03 09:08:10;;;;;;;7.57;6.28;;;;;;;;;;5026639;28;20029;-57
2021/12/03 09:10:36;;;;;;;17.60;8.40;;;;;;;;;;5024788;28;20810;-57
2021/12/03 09:13:01;;;;;;;17.25;8.05;;;;;;;;;;5022672;28;20033;-51
2021/12/03 09:15:43;;;;;;;9.82;7.93;;;;;;;;;;5027578;28;20021;-49
2021/12/03 09:20:43;;;;;;;10.30;5.20;;;;;;;;;;5026141;28;19916;-40
2021/12/03 09:23:15;;;;;;;9.38;5.72;;;;;;;;;;5026187;28;20033;-45
2021/12/03 09:25:54;;;;;;;14.80;7.82;;;;;;;;;;5026173;28;20017;-45
2021/12/03 09:28:25;;;;;;;14.27;8.77;;;;;;;;;;5023884;28;20041;-48
2021/12/03 09:30:50;;;;;;;22.65;7.78;;;;;;;;;;5024650;28;20108;-48
2021/12/03 09:33:18;;;;;;;15.48;6.70;;;;;;;;;;5031032;28;20124;-53
2021/12/03 09:35:47;;;;;;;18.63;9.32;;;;;;;;;;5024244;28;20116;-49
2021/12/03 09:38:12;;;;;;;13.98;8.57;;;;;;;;;;5023176;28;20033;-45
2021/12/03 09:40:38;;;;;;;19.55;10.07;;;;;;;;;;5025774;28;20028;-45
2021/12/03 09:43:04;;;;;;;8.85;7.63;;;;;;;;;;5024315;28;20022;-44
2021/12/03 09:45:30;;;;;;;13.65;7.85;;;;;;;;;;5024444;28;20095;-49
2021/12/03 09:47:56;;;;;;;20.20;10.15;;;;;;;;;;5024997;28;20037;-44
2021/12/03 09:50:22;;;;;;;16.30;7.28;;;;;;;;;;5024597;28;20473;-43
2021/12/03 09:55:28;;;;;;;21.92;11.35;;;;;;;;;;5027040;28;20087;-39
2021/12/03 10:20:16;;;;;;;27.88;6.57;;;;;;;;;;5023704;28;20532;-50
2021/12/03 10:27:57;;;;;;;8.80;4.53;;;;;;;;;;5025519;28;20518;-49
2021/12/03 10:41:49;;;;;;;9.75;3.47;;;;;;;;;;5029958;28;20040;-48
2021/12/03 10:48:50;;;;;;;4.40;2.90;;;;;;;;;;5025540;28;20766;-46
2021/12/03 10:51:44;;;;;;;10.98;9.98;;;;;;;;;;5023852;28;20036;-48
2021/12/03 10:54:25;;;;;;;10.02;7.47;;;;;;;;;;5022710;28;20502;-50
2021/12/03 11:00:20;;;;;;;7.95;6.95;;;;;;;;;;5027821;28;20543;-46
2021/12/03 11:27:42;;;;;;;25.15;12.30;;;;;;;;;;5022671;28;20040;-49
2021/12/03 12:39:48;;;;;;;7.93;2.50;;;;;;;;;;5027567;28;20104;-57
2021/12/03 12:42:26;;;;;;;4.18;1.15;;;;;;;;;;5029468;28;20069;-56
2021/12/03 14:06:14;;;;;;;9.23;7.38;;;;;;;;;;5026370;28;20028;-46
2021/12/03 14:38:48;;;;;;;13.50;9.82;;;;;;;;;;5022281;28;20033;-51
2021/12/03 14:41:25;;;;;;;24.52;13.18;;;;;;;;;;5023538;28;20034;-50
2021/12/03 14:49:48;;;;;;;17.15;13.70;;;;;;;;;;5022614;28;20028;-55
2021/12/03 14:52:19;;;;;;;5.82;3.95;;;;;;;;;;5023390;28;20100;-51
2021/12/03 14:57:15;;;;;;;16.05;12.77;;;;;;;;;;5028986;28;20526;-53
2021/12/03 15:08:19;;;;;;;17.55;10.82;;;;;;;;;;5026779;28;20056;-53
2021/12/03 15:18:41;;;;;;;16.88;11.27;;;;;;;;;;5024254;28;20022;-51
2021/12/03 15:24:12;;;;;;;26.60;18.92;;;;;;;;;;5021976;28;20118;-54
2021/12/03 15:32:06;;;;;;;24.90;14.50;;;;;;;;;;5024480;28;20117;-57
2021/12/03 15:34:44;;;;;;;12.52;8.95;;;;;;;;;;5026341;28;20030;-57
2021/12/03 15:37:42;;;;;;;19.85;15.63;;;;;;;;;;5025468;28;20025;-56
2021/12/03 15:54:35;;;;;;;20.25;17.80;;;;;;;;;;5025600;28;20025;-54
2021/12/03 15:57:02;;;;;;;41.60;22.15;;;;;;;;;;5024223;28;20065;-55
2021/12/03 16:05:06;;;;;;;69.75;55.60;;;;;;;;;;5027697;28;20615;-54
2021/12/03 16:10:31;;;;;;;72.85;50.97;;;;;;;;;;5012809;28;20033;-45
2021/12/03 16:15:47;;;;;;;59.33;47.88;;;;;;;;;;5025774;28;20174;-51
2021/12/03 16:52:58;;;;;;;26.88;19.88;;;;;;;;;;5026420;28;20025;-56
2021/12/03 16:55:24;;;;;;;21.15;17.15;;;;;;;;;;5025844;28;20026;-56
2021/12/03 16:57:52;;;;;;;36.17;24.25;;;;;;;;;;5025680;28;20634;-56
2021/12/03 17:00:40;;;;;;;15.70;12.68;;;;;;;;;;5025783;28;20025;-56
2021/12/03 17:03:24;;;;;;;41.88;31.95;;;;;;;;;;5026882;28;20098;-56
2021/12/03 17:14:02;;;;;;;41.95;37.53;;;;;;;;;;5026985;28;20036;-55
2021/12/03 17:18:16;;;;;;;54.45;42.47;;;;;;;;;;5027542;28;20053;-55
2021/12/03 17:56:55;;;;;;;48.92;37.80;;;;;;;;;;5026404;28;20036;-57
2021/12/03 17:59:28;;;;;;;39.42;35.40;;;;;;;;;;5022041;28;20050;-55
2021/12/03 18:02:36;;;;;;;42.38;29.10;;;;;;;;;;5023950;28;20029;-55
2021/12/03 18:07:29;;;;;;;56.05;42.15;;;;;;;;;;5023564;28;20822;-56
2021/12/03 18:54:46;;;;;;;16.95;12.88;;;;;;;;;;5023471;28;20143;-55
2021/12/03 18:57:18;;;;;;;41.15;29.60;;;;;;;;;;5030372;28;20034;-56
2021/12/03 18:59:56;;;;;;;33.10;25.40;;;;;;;;;;5024753;28;20032;-56
2021/12/03 19:02:24;;;;;;;27.38;24.17;;;;;;;;;;5026108;28;20472;-58
2021/12/03 19:04:57;;;;;;;34.55;25.88;;;;;;;;;;5025348;28;20108;-56
2021/12/03 19:07:30;;;;;;;33.22;21.23;;;;;;;;;;5023919;28;20045;-56
2021/12/03 19:09:59;;;;;;;39.63;33.30;;;;;;;;;;5023754;28;20036;-56
2021/12/03 19:12:27;;;;;;;71.07;49.13;;;;;;;;;;5021881;28;20032;-57
2021/12/03 19:14:56;;;;;;;40.08;25.35;;;;;;;;;;5023997;28;20068;-57
2021/12/03 19:17:23;;;;;;;35.50;31.88;;;;;;;;;;5023522;28;20124;-58
2021/12/03 19:19:50;;;;;;;33.83;27.58;;;;;;;;;;5023287;28;20641;-56
2021/12/03 19:22:16;;;;;;;32.30;26.00;;;;;;;;;;5022381;28;20033;-58
2021/12/03 19:24:42;;;;;;;39.33;35.13;;;;;;;;;;5024130;28;20021;-58
2021/12/03 19:27:09;;;;;;;46.55;31.80;;;;;;;;;;5019493;28;20721;-59
2021/12/03 19:29:35;;;;;;;42.13;34.45;;;;;;;;;;5020874;28;20020;-58
2021/12/03 19:32:00;;;;;;;52.58;44.92;;;;;;;;;;5023375;28;20033;-59
2021/12/03 19:34:26;;;;;;;49.70;40.65;;;;;;;;;;5019983;28;20103;-58
2021/12/03 19:36:57;;;;;;;53.22;43.08;;;;;;;;;;5020851;28;20037;-59
2021/12/03 19:39:24;;;;;;;57.05;48.70;;;;;;;;;;5023248;28;20053;-58
2021/12/03 19:42:13;;;;;;;140.60;107.65;;;;;;;;;;5023633;28;20021;-57
2021/12/03 19:47:06;;;;;;;73.13;63.60;;;;;;;;;;5026662;28;20081;-57
2021/12/03 19:49:37;;;;;;;76.13;52.55;;;;;;;;;;5025109;28;20420;-58
2021/12/03 19:52:24;;;;;;;57.20;48.85;;;;;;;;;;5029200;28;20733;-61
2021/12/03 19:54:49;;;;;;;112.75;87.95;;;;;;;;;;5024043;28;20033;-61
2021/12/03 19:57:14;;;;;;;68.45;56.65;;;;;;;;;;5025246;28;20121;-58
2021/12/03 19:59:43;;;;;;;55.50;45.97;;;;;;;;;;5023415;28;20049;-59
2021/12/03 20:02:11;;;;;;;47.72;42.42;;;;;;;;;;5024374;28;20031;-58
2021/12/03 20:04:36;;;;;;;50.13;44.95;;;;;;;;;;5023581;28;20035;-62
2021/12/03 20:07:02;;;;;;;64.60;50.55;;;;;;;;;;5024190;28;20018;-62
2021/12/03 20:09:35;;;;;;;83.38;63.58;;;;;;;;;;5027441;28;20453;-60
2021/12/03 20:12:07;;;;;;;57.58;51.70;;;;;;;;;;5022635;28;20433;-61
2021/12/03 20:14:32;;;;;;;70.22;55.80;;;;;;;;;;5022450;28;20517;-60
2021/12/03 20:17:04;;;;;;;65.15;55.95;;;;;;;;;;5021153;28;20055;-60
2021/12/03 20:19:38;;;;;;;67.93;58.67;;;;;;;;;;5020153;28;20062;-68
2021/12/03 20:22:12;;;;;;;69.13;46.83;;;;;;;;;;5019884;28;20085;-48
2021/12/03 20:27:24;;;;;;;57.30;49.20;;;;;;;;;;5029063;28;20036;-52
2021/12/03 20:29:53;;;;;;;62.58;49.10;;;;;;;;;;5023024;28;20041;-52
2021/12/03 20:32:24;;;;;;;55.95;45.80;;;;;;;;;;5022315;28;20087;-49
2021/12/03 20:35:24;;;;;;;;;;;;;;;;;;5023533;28;20577;-49
2021/12/03 20:37:50;;;;;;;43.78;38.92;;;;;;;;;;5024859;28;20554;-48
2021/12/03 20:40:19;;;;;;;58.83;46.42;;;;;;;;;;5025207;28;20119;-47
2021/12/03 20:48:21;;;;;;;72.78;47.55;;;;;;;;;;5023329;28;20547;-50
2021/12/03 21:09:49;;;;;;;32.83;27.77;;;;;;;;;;5026411;28;20031;-51
2021/12/03 21:12:26;;;;;;;33.00;27.77;;;;;;;;;;5023340;28;20251;-48
2021/12/03 21:15:04;;;;;;;27.23;22.52;;;;;;;;;;5023267;28;20031;-47
2021/12/03 21:22:31;;;;;;;33.88;30.38;;;;;;;;;;5021328;28;20021;-51
2021/12/03 21:25:01;;;;;;;36.17;32.45;;;;;;;;;;5022604;28;20021;-49
2021/12/03 21:27:35;;;;;;;34.72;31.08;;;;;;;;;;5023411;28;20028;-48
2021/12/03 21:43:23;;;;;;;35.03;30.05;;;;;;;;;;5021886;28;20076;-52
2021/12/03 21:45:49;;;;;;;42.25;34.55;;;;;;;;;;5026742;28;20056;-49
2021/12/03 21:48:14;;;;;;;28.70;25.48;;;;;;;;;;5018212;28;20105;-50
2021/12/03 21:50:40;;;;;;;27.88;20.85;;;;;;;;;;5020075;28;20484;-49
2021/12/03 21:53:06;;;;;;;28.77;16.40;;;;;;;;;;5021679;28;20447;-47
2021/12/03 21:55:34;;;;;;;28.13;16.65;;;;;;;;;;5020957;28;20551;-48
2021/12/03 21:58:00;;;;;;;14.43;10.75;;;;;;;;;;5024725;28;20029;-47
2021/12/03 22:00:25;;;;;;;17.05;15.15;;;;;;;;;;5022764;28;20414;-50
2021/12/03 22:02:51;;;;;;;22.63;20.40;;;;;;;;;;5022263;28;20024;-45
2021/12/03 22:05:16;;;;;;;34.28;30.63;;;;;;;;;;5020267;28;20124;-53
2021/12/03 22:07:41;;;;;;;26.58;23.67;;;;;;;;;;5021871;28;20055;-50
2021/12/03 22:10:07;;;;;;;19.80;17.00;;;;;;;;;;5027477;28;20047;-51
2021/12/03 22:12:35;;;;;;;18.15;14.65;;;;;;;;;;5025071;28;20469;-46
2021/12/03 22:15:00;;;;;;;17.85;10.32;;;;;;;;;;5024613;28;20460;-47
2021/12/03 22:17:25;;;;;;;15.52;12.70;;;;;;;;;;5024569;28;20053;-51
2021/12/03 22:19:51;;;;;;;19.67;17.02;;;;;;;;;;5025846;28;20075;-49
2021/12/03 22:22:17;;;;;;;21.80;17.65;;;;;;;;;;5025681;28;20096;-49
2021/12/03 22:24:42;;;;;;;28.20;18.08;;;;;;;;;;5025708;28;20022;-51
2021/12/03 22:27:10;;;;;;;28.55;17.90;;;;;;;;;;5024971;28;20029;-52
2021/12/03 22:29:36;;;;;;;19.63;15.77;;;;;;;;;;5025536;28;20418;-52
2021/12/03 22:32:02;;;;;;;27.15;15.85;;;;;;;;;;5024291;28;20021;-51
2021/12/03 22:34:30;;;;;;;25.33;22.65;;;;;;;;;;5025625;28;20033;-53
2021/12/03 22:36:55;;;;;;;28.15;24.83;;;;;;;;;;5027691;28;20040;-50
2021/12/03 22:39:21;;;;;;;30.45;20.73;;;;;;;;;;5027021;28;20022;-53
2021/12/03 22:41:48;;;;;;;34.55;25.45;;;;;;;;;;5025986;28;20010;-51
2021/12/03 22:44:14;;;;;;;34.53;28.30;;;;;;;;;;5025921;28;20069;-48
2021/12/03 22:46:47;;;;;;;30.73;22.27;;;;;;;;;;5028231;28;20049;-52